Time;durP1;ratioP1;P1;durP2;ratioP2;P2;SDS_P1;SDS_P2;PMS_P1;PMS_P2;Temp;Humidity;BMP_temperature;BMP_pressure;BME280_temperature;BME280_humidity;BME280_pressure;Samples;Min_cycle;Max_cycle;Signal;HPM_P1;HPM_P2
2023/08/20 00:01:55;;;;;;;;;;;;;;;21.60;55.14;102003.84;4830866;29;118095;-76
2023/08/20 00:04:25;;;;;;;;;;;;;;;21.55;55.26;102002.38;4832344;29;124942;-76
2023/08/20 00:06:52;;;;;;;;;;;;;;;21.55;55.22;101990.72;4830322;29;124562;-76
2023/08/20 00:09:19;;;;;;;;;;;;;;;21.56;55.29;101987.88;4829887;29;120862;-76
2023/08/20 00:11:46;;;;;;;;;;;;;;;21.53;55.27;101982.75;4832154;29;119904;-76
2023/08/20 00:14:16;;;;;;;;;;;;;;;21.53;55.21;101990.84;4834616;29;124357;-76
2023/08/20 00:16:43;;;;;;;;;;;;;;;21.49;55.31;101986.66;4829201;29;123981;-76
2023/08/20 00:19:11;;;;;;;;;;;;;;;21.47;55.24;101993.94;4832589;29;119972;-76
2023/08/20 00:21:41;;;;;;;;;;;;;;;21.46;55.18;101991.41;4834190;29;118955;-76
2023/08/20 00:24:09;;;;;;;;;;;;;;;21.42;55.23;101993.41;4827748;29;125107;-76
2023/08/20 00:26:36;;;;;;;;;;;;;;;21.40;55.29;101992.66;4835040;29;123826;-76
2023/08/20 00:29:03;;;;;;;;;;;;;;;21.38;55.33;101989.22;4821193;29;119650;-76
2023/08/20 00:31:30;;;;;;;;;;;;;;;21.39;55.45;101988.25;4815118;29;118121;-76
2023/08/20 00:33:57;;;;;;;;;;;;;;;21.38;55.39;102000.00;4833115;29;124044;-76
2023/08/20 00:36:33;;;;;;;;;;;;;;;21.37;55.33;102009.06;4832821;29;123938;-76
2023/08/20 00:39:00;;;;;;;;;;;;;;;21.36;55.40;102012.69;4833023;29;119140;-77
2023/08/20 00:41:27;;;;;;;;;;;;;;;21.36;55.44;102008.19;4848708;29;118228;-76
2023/08/20 00:43:54;;;;;;;;;;;;;;;21.35;55.48;101994.81;4839128;29;124121;-76
2023/08/20 00:46:21;;;;;;;;;;;;;;;21.36;55.53;102012.69;4817380;29;124529;-76
2023/08/20 00:48:49;;;;;;;;;;;;;;;21.34;55.36;101998.47;4845256;29;118246;-76
2023/08/20 00:51:16;;;;;;;;;;;;;;;21.33;55.53;102012.94;4833949;29;117676;-76
2023/08/20 00:53:45;;;;;;;;;;;;;;;21.32;55.63;102005.81;4832963;29;124457;-76
2023/08/20 00:56:12;;;;;;;;;;;;;;;21.34;55.58;102014.66;4832838;29;122817;-76
2023/08/20 00:58:39;;;;;;;;;;;;;;;21.33;55.58;102018.34;4830196;29;120861;-76
2023/08/20 01:01:06;;;;;;;;;;;;;;;21.33;55.54;102023.72;4828407;29;120745;-76
2023/08/20 01:03:33;;;;;;;;;;;;;;;21.32;55.52;102027.38;4844852;29;124809;-76
2023/08/20 01:06:12;;;;;;;;;;;;;;;21.31;55.54;102017.59;4822214;29;123225;-76
2023/08/20 01:08:40;;;;;;;;;;;;;;;21.30;55.54;102023.94;4832014;29;119799;-76
2023/08/20 01:11:16;;;;;;;;;;;;;;;21.29;55.56;102016.84;4834978;29;119178;-76
2023/08/20 01:13:43;;;;;;;;;;;;;;;21.28;55.58;102031.28;4831383;29;127392;-76
2023/08/20 01:16:10;;;;;;;;;;;;;;;21.27;55.60;102037.66;4829656;29;123207;-76
2023/08/20 01:18:37;;;;;;;;;;;;;;;21.27;55.57;102040.34;4831190;29;119933;-76
2023/08/20 01:21:11;;;;;;;;;;;;;;;21.27;55.58;102045.72;4829215;29;119645;-76
2023/08/20 01:23:58;;;;;;;;;;;;;;;21.29;55.87;102043.78;4832540;29;124491;-76
2023/08/20 01:26:31;;;;;;;;;;;;;;;21.31;55.86;102052.63;4826941;29;123311;-77
2023/08/20 01:28:58;;;;;;;;;;;;;;;21.32;55.86;102065.09;4814949;29;118808;-77
2023/08/20 01:31:26;;;;;;;;;;;;;;;21.35;55.87;102064.91;4825581;29;119636;-76
2023/08/20 01:33:53;;;;;;;;;;;;;;;21.37;55.87;102062.97;4834078;29;124061;-76
2023/08/20 01:36:24;;;;;;;;;;;;;;;21.40;55.93;102062.75;4830574;29;123856;-76
2023/08/20 01:38:51;;;;;;;;;;;;;;;21.43;55.92;102073.28;4828935;29;118860;-76
2023/08/20 01:41:18;;;;;;;;;;;;;;;21.47;56.04;102074.81;4833913;29;118653;-76
2023/08/20 01:43:45;;;;;;;;;;;;;;;21.49;56.01;102072.91;4821649;29;124181;-76
2023/08/20 01:46:12;;;;;;;;;;;;;;;21.54;56.00;102076.09;4831675;29;124115;-76
2023/08/20 01:48:40;;;;;;;;;;;;;;;21.60;55.96;102068.56;4830222;29;119620;-76
2023/08/20 01:51:07;;;;;;;;;;;;;;;21.61;55.98;102065.75;4831554;29;118856;-76
2023/08/20 01:53:34;;;;;;;;;;;;;;;21.65;56.07;102075.34;4847855;29;124340;-76
2023/08/20 01:56:01;;;;;;;;;;;;;;;21.70;56.04;102075.00;4844916;29;123761;-76
2023/08/20 01:58:28;;;;;;;;;;;;;;;21.74;56.05;102077.38;4827359;29;120253;-76
2023/08/20 02:00:54;;;;;;;;;;;;;;;21.79;56.01;102068.94;4845644;29;119246;-76
2023/08/20 02:03:22;;;;;;;;;;;;;;;21.81;56.06;102077.78;4826033;29;123425;-76
2023/08/20 02:05:49;;;;;;;;;;;;;;;21.85;56.02;102073.91;4832107;29;122237;-76
2023/08/20 02:08:16;;;;;;;;;;;;;;;21.88;56.01;102073.66;4845043;29;118420;-76
2023/08/20 02:10:43;;;;;;;;;;;;;;;21.92;55.97;102072.44;4829355;29;117963;-76
2023/08/20 02:13:10;;;;;;;;;;;;;;;21.95;56.01;102069.53;4832690;29;124036;-76
2023/08/20 02:15:37;;;;;;;;;;;;;;;21.99;56.02;102066.63;4831221;29;123183;-76
2023/08/20 02:18:04;;;;;;;;;;;;;;;22.00;55.94;102076.41;4828119;29;119092;-76
2023/08/20 02:20:31;;;;;;;;;;;;;;;22.02;55.99;102085.25;4831918;29;118813;-76
2023/08/20 02:22:58;;;;;;;;;;;;;;;22.02;55.91;102088.84;4831875;29;124367;-76
2023/08/20 02:25:25;;;;;;;;;;;;;;;22.04;56.01;102088.72;4830980;29;123802;-76
2023/08/20 02:27:54;;;;;;;;;;;;;;;22.06;55.89;102081.38;4829343;29;119180;-76
2023/08/20 02:30:21;;;;;;;;;;;;;;;22.07;55.92;102078.56;4828255;29;119517;-76
2023/08/20 02:32:48;;;;;;;;;;;;;;;22.09;56.07;102075.75;4828118;29;125113;-76
2023/08/20 02:35:16;;;;;;;;;;;;;;;22.11;56.06;102073.78;4829579;29;123749;-76
2023/08/20 02:37:43;;;;;;;;;;;;;;;22.11;56.00;102071.09;4846554;29;119811;-76
2023/08/20 02:40:11;;;;;;;;;;;;;;;22.10;56.06;102072.94;4829931;29;119583;-76
2023/08/20 02:42:38;;;;;;;;;;;;;;;22.12;56.03;102072.81;4828451;29;124067;-76
2023/08/20 02:45:05;;;;;;;;;;;;;;;22.13;56.08;102074.53;4830535;29;124401;-76
2023/08/20 02:47:32;;;;;;;;;;;;;;;22.11;56.01;102085.47;4826567;29;119463;-76
2023/08/20 02:50:00;;;;;;;;;;;;;;;22.12;56.09;102087.16;4832455;29;118763;-76
2023/08/20 02:52:27;;;;;;;;;;;;;;;22.14;56.13;102087.06;4831806;29;125005;-76
2023/08/20 02:54:53;;;;;;;;;;;;;;;22.15;55.95;102086.06;4845597;28;123185;-76
2023/08/20 02:57:21;;;;;;;;;;;;;;;22.14;55.95;102087.06;4830567;29;119905;-76
2023/08/20 02:59:48;;;;;;;;;;;;;;;22.12;55.91;102091.72;4828757;29;118018;-76
2023/08/20 03:02:15;;;;;;;;;;;;;;;22.10;56.05;102083.72;4830744;29;123629;-77
2023/08/20 03:04:42;;;;;;;;;;;;;;;22.08;56.05;102079.44;4831126;29;123118;-76
2023/08/20 03:07:09;;;;;;;;;;;;;;;22.06;56.07;102065.19;4821982;29;119091;-76
2023/08/20 03:09:36;;;;;;;;;;;;;;;22.05;56.01;102074.25;4823306;29;118099;-76
2023/08/20 03:12:03;;;;;;;;;;;;;;;22.04;56.02;102067.13;4843052;29;123788;-76
2023/08/20 03:14:30;;;;;;;;;;;;;;;22.03;55.98;102066.28;4830958;29;124203;-76
2023/08/20 03:16:57;;;;;;;;;;;;;;;22.02;56.09;102063.69;4842128;28;118691;-76
2023/08/20 03:19:24;;;;;;;;;;;;;;;22.00;56.03;102057.53;4844232;29;117913;-76
2023/08/20 03:21:51;;;;;;;;;;;;;;;21.97;55.88;102056.78;4830955;29;124849;-76
2023/08/20 03:24:17;;;;;;;;;;;;;;;21.92;55.90;102058.97;4831289;29;124094;-76
2023/08/20 03:26:46;;;;;;;;;;;;;;;21.88;55.98;102068.25;4844517;29;119709;-76
2023/08/20 03:29:14;;;;;;;;;;;;;;;21.83;55.95;102062.38;4833872;29;97398;-76
2023/08/20 03:31:41;;;;;;;;;;;;;;;21.80;55.94;102070.66;4830678;29;124284;-76
2023/08/20 03:34:09;;;;;;;;;;;;;;;21.74;55.97;102060.34;4831894;28;123947;-76
2023/08/20 03:36:37;;;;;;;;;;;;;;;21.71;56.08;102061.41;4841919;28;120017;-76
2023/08/20 03:39:04;;;;;;;;;;;;;;;21.68;56.06;102066.16;4830455;29;118458;-76
2023/08/20 03:41:31;;;;;;;;;;;;;;;21.65;56.08;102061.00;4835619;29;124121;-76
2023/08/20 03:43:58;;;;;;;;;;;;;;;21.62;56.13;102066.63;4842665;29;125543;-76
2023/08/20 03:46:25;;;;;;;;;;;;;;;21.57;56.06;102065.13;4829528;29;118579;-77
2023/08/20 03:48:52;;;;;;;;;;;;;;;21.54;56.13;102068.03;4847592;29;118360;-76
2023/08/20 03:51:19;;;;;;;;;;;;;;;21.51;56.20;102065.56;4849181;29;123013;-76
2023/08/20 03:53:46;;;;;;;;;;;;;;;21.48;56.04;102065.78;4834820;29;124718;-76
2023/08/20 03:56:13;;;;;;;;;;;;;;;21.46;56.11;102073.13;4827237;29;119384;-76
2023/08/20 03:58:39;;;;;;;;;;;;;;;21.43;56.19;102078.69;4831723;29;118961;-76
2023/08/20 04:01:06;;;;;;;;;;;;;;;21.39;56.19;102071.78;4833990;29;123546;-76
2023/08/20 04:03:33;;;;;;;;;;;;;;;21.37;56.11;102073.75;4831386;29;124212;-76
2023/08/20 04:06:00;;;;;;;;;;;;;;;21.34;56.12;102071.25;4826191;29;120006;-76
2023/08/20 04:08:28;;;;;;;;;;;;;;;21.31;56.24;102071.50;4844785;29;118719;-76
2023/08/20 04:10:55;;;;;;;;;;;;;;;21.27;56.29;102068.16;4833891;29;124972;-77
2023/08/20 04:13:22;;;;;;;;;;;;;;;21.26;56.37;102076.31;4832851;29;124302;-77
2023/08/20 04:15:49;;;;;;;;;;;;;;;21.22;56.25;102069.44;4831239;29;119480;-76
2023/08/20 04:18:16;;;;;;;;;;;;;;;21.19;56.35;102076.78;4832474;29;119254;-76
2023/08/20 04:20:43;;;;;;;;;;;;;;;21.17;56.33;102078.72;4829861;29;124363;-76
2023/08/20 04:23:10;;;;;;;;;;;;;;;21.14;56.31;102073.53;4846319;29;124797;-76
2023/08/20 04:25:37;;;;;;;;;;;;;;;21.12;56.29;102080.84;4829281;29;119694;-76
2023/08/20 04:28:04;;;;;;;;;;;;;;;21.10;56.16;102087.34;4842957;29;119348;-76
2023/08/20 04:30:31;;;;;;;;;;;;;;;21.05;56.25;102082.25;4845540;28;122832;-76
2023/08/20 04:32:58;;;;;;;;;;;;;;;21.00;56.15;102095.16;4835243;29;124610;-76
2023/08/20 04:35:27;;;;;;;;;;;;;;;20.96;56.33;102085.59;4828793;29;117823;-76
2023/08/20 04:37:54;;;;;;;;;;;;;;;20.93;56.35;102091.19;4848157;28;119135;-76
2023/08/20 04:40:21;;;;;;;;;;;;;;;20.91;56.30;102087.75;4830220;29;124739;-76
2023/08/20 04:42:48;;;;;;;;;;;;;;;20.89;56.39;102089.66;4833768;29;124536;-76
2023/08/20 04:45:17;;;;;;;;;;;;;;;20.87;56.42;102091.59;4831424;29;118811;-76
2023/08/20 04:47:46;;;;;;;;;;;;;;;20.85;56.26;102098.94;4828807;29;118026;-76
2023/08/20 04:50:13;;;;;;;;;;;;;;;20.83;56.39;102095.47;4847684;29;123433;-76
2023/08/20 04:52:40;;;;;;;;;;;;;;;20.80;56.36;102108.19;4847241;29;124933;-76
2023/08/20 04:55:08;;;;;;;;;;;;;;;20.76;56.36;102101.28;4845594;28;119465;-76
2023/08/20 04:57:35;;;;;;;;;;;;;;;20.73;56.38;102095.25;4829476;29;117813;-76
2023/08/20 05:00:03;;;;;;;;;;;;;;;20.70;56.42;102101.72;4846546;29;123516;-76
2023/08/20 05:02:48;;;;;;;;;;;;;;;20.66;56.47;102100.19;4832512;29;124678;-76
2023/08/20 05:05:18;;;;;;;;;;;;;;;20.65;56.54;102108.38;4830644;29;121514;-76
2023/08/20 05:07:45;;;;;;;;;;;;;;;20.65;56.63;102108.38;4833252;29;119026;-76
2023/08/20 05:10:12;;;;;;;;;;;;;;;20.65;56.49;102109.25;4828722;29;123432;-76
2023/08/20 05:12:39;;;;;;;;;;;;;;;20.64;56.52;102102.09;4843491;29;123251;-76
2023/08/20 05:15:07;;;;;;;;;;;;;;;20.64;56.50;102112.03;4825693;29;119520;-76
2023/08/20 05:17:34;;;;;;;;;;;;;;;20.63;56.55;102111.16;4832169;29;118593;-76
2023/08/20 05:20:02;;;;;;;;;;;;;;;20.64;56.66;102102.09;4844794;28;124116;-76
2023/08/20 05:22:29;;;;;;;;;;;;;;;20.65;56.66;102103.84;4843831;29;124177;-77
2023/08/20 05:24:56;;;;;;;;;;;;;;;20.67;56.84;102106.44;4829997;29;118723;-76
2023/08/20 05:27:23;;;;;;;;;;;;;;;20.69;56.89;102105.38;4831677;29;119057;-76
2023/08/20 05:29:50;;;;;;;;;;;;;;;20.73;56.82;102112.25;4830744;29;123705;-76
2023/08/20 05:32:19;;;;;;;;;;;;;;;20.77;56.85;102108.38;4830340;29;124032;-77
2023/08/20 05:34:46;;;;;;;;;;;;;;;20.79;56.86;102111.88;4824679;29;120443;-76
2023/08/20 05:37:13;;;;;;;;;;;;;;;20.84;56.92;102118.75;4831667;29;118535;-77
2023/08/20 05:39:41;;;;;;;;;;;;;;;20.86;56.91;102116.81;4832627;29;123428;-77
2023/08/20 05:42:08;;;;;;;;;;;;;;;20.92;56.81;102127.16;4830801;29;124194;-77
2023/08/20 05:44:37;;;;;;;;;;;;;;;20.96;56.80;102129.56;4834296;29;118806;-77
2023/08/20 05:47:07;;;;;;;;;;;;;;;21.00;56.82;102130.19;4829814;29;118466;-77
2023/08/20 05:49:34;;;;;;;;;;;;;;;21.00;56.85;102131.06;4828927;29;123660;-77
2023/08/20 05:52:02;;;;;;;;;;;;;;;21.04;56.82;102131.72;4829948;29;124543;-77
2023/08/20 05:54:29;;;;;;;;;;;;;;;21.06;56.83;102129.78;4828832;29;121864;-76
2023/08/20 05:56:57;;;;;;;;;;;;;;;21.11;56.80;102133.00;4831042;29;119107;-76
2023/08/20 05:59:24;;;;;;;;;;;;;;;21.17;56.93;102132.59;4830107;29;123406;-77
2023/08/20 06:01:52;;;;;;;;;;;;;;;21.24;57.09;102132.16;4847400;29;123969;-77
2023/08/20 06:04:19;;;;;;;;;;;;;;;21.29;56.98;102138.09;4832538;29;119492;-77
2023/08/20 06:06:46;;;;;;;;;;;;;;;21.35;57.01;102134.97;4843878;29;119846;-76
2023/08/20 06:09:13;;;;;;;;;;;;;;;21.41;56.96;102145.31;4827338;29;124185;-77
2023/08/20 06:11:40;;;;;;;;;;;;;;;21.47;56.94;102144.91;4825690;29;124931;-77
2023/08/20 06:14:07;;;;;;;;;;;;;;;21.53;57.03;102139.09;4833162;29;119185;-77
2023/08/20 06:16:34;;;;;;;;;;;;;;;21.61;57.04;102137.69;4829366;29;118776;-77
2023/08/20 06:19:01;;;;;;;;;;;;;;;21.67;57.06;102139.94;4822432;29;124819;-77
2023/08/20 06:21:30;;;;;;;;;;;;;;;21.75;57.11;102141.09;4820999;29;124107;-76
2023/08/20 06:23:57;;;;;;;;;;;;;;;21.84;57.04;102142.28;4815695;29;119447;-76
2023/08/20 06:26:24;;;;;;;;;;;;;;;21.92;57.03;102145.28;4838325;29;119689;-77
2023/08/20 06:28:51;;;;;;;;;;;;;;;22.01;57.10;102137.50;4827898;29;124473;-76
2023/08/20 06:31:18;;;;;;;;;;;;;;;22.09;57.13;102140.50;4824413;29;124031;-77
2023/08/20 06:33:46;;;;;;;;;;;;;;;22.19;57.02;102140.69;4824463;29;119485;-77
2023/08/20 06:36:13;;;;;;;;;;;;;;;22.29;57.14;102137.22;4845801;29;118208;-76
2023/08/20 06:38:40;;;;;;;;;;;;;;;22.40;57.11;102139.13;4817643;29;123792;-76
2023/08/20 06:41:07;;;;;;;;;;;;;;;22.51;57.19;102146.44;4845545;29;123410;-76
2023/08/20 06:43:34;;;;;;;;;;;;;;;22.63;57.23;102144.66;4827722;29;120460;-76
2023/08/20 06:46:01;;;;;;;;;;;;;;;22.77;57.27;102146.28;4826930;29;119646;-76
2023/08/20 06:48:28;;;;;;;;;;;;;;;22.90;57.32;102147.06;4827980;29;125656;-76
2023/08/20 06:50:55;;;;;;;;;;;;;;;23.02;57.12;102146.13;4830708;29;125117;-76
2023/08/20 06:53:22;;;;;;;;;;;;;;;23.14;57.15;102155.16;4833382;29;119255;-76
2023/08/20 06:55:49;;;;;;;;;;;;;;;23.26;56.94;102156.03;4823602;29;118535;-76
2023/08/20 06:58:16;;;;;;;;;;;;;;;23.39;57.02;102159.50;4829126;29;125033;-76
2023/08/20 07:00:43;;;;;;;;;;;;;;;23.50;57.16;102162.22;4831635;29;123965;-76
2023/08/20 07:03:10;;;;;;;;;;;;;;;23.63;57.00;102155.84;4829189;29;118901;-76
2023/08/20 07:05:37;;;;;;;;;;;;;;;23.75;56.98;102152.16;4831265;29;118383;-76
2023/08/20 07:08:04;;;;;;;;;;;;;;;23.89;57.06;102151.09;4831203;29;124905;-76
2023/08/20 07:10:31;;;;;;;;;;;;;;;24.05;57.01;102147.97;4832037;29;124062;-76
2023/08/20 07:12:57;;;;;;;;;;;;;;;24.19;57.06;102153.13;4826717;29;118691;-76
2023/08/20 07:15:24;;;;;;;;;;;;;;;24.34;57.01;102147.44;4823397;29;118752;-76
2023/08/20 07:17:51;;;;;;;;;;;;;;;24.47;57.13;102150.84;4824933;29;125150;-76
2023/08/20 07:20:18;;;;;;;;;;;;;;;24.62;57.14;102149.59;4829348;29;123725;-76
2023/08/20 07:22:45;;;;;;;;;;;;;;;24.76;56.87;102151.13;4845877;29;119693;-76
2023/08/20 07:25:12;;;;;;;;;;;;;;;24.91;57.04;102143.53;4825803;29;118879;-77
2023/08/20 07:27:39;;;;;;;;;;;;;;;25.06;56.63;102147.63;4823604;29;124267;-77
2023/08/20 07:30:06;;;;;;;;;;;;;;;25.23;56.91;102145.34;4833910;29;122958;-76
2023/08/20 07:32:33;;;;;;;;;;;;;;;25.38;56.70;102143.16;4828503;29;119839;-76
2023/08/20 07:35:00;;;;;;;;;;;;;;;25.54;56.71;102145.38;4823837;29;119884;-76
2023/08/20 07:37:27;;;;;;;;;;;;;;;25.69;56.63;102144.00;4827397;29;124336;-76
2023/08/20 07:39:54;;;;;;;;;;;;;;;25.86;56.63;102144.38;4821208;29;123931;-76
2023/08/20 07:42:21;;;;;;;;;;;;;;;26.01;56.34;102148.44;4825173;29;119544;-76
2023/08/20 07:44:48;;;;;;;;;;;;;;;26.13;56.14;102152.78;4830269;29;117414;-76
2023/08/20 07:47:15;;;;;;;;;;;;;;;26.27;56.29;102153.38;4831778;29;124614;-76
2023/08/20 07:49:42;;;;;;;;;;;;;;;26.39;56.11;102147.69;4846533;29;123515;-76
2023/08/20 07:52:08;;;;;;;;;;;;;;;26.53;56.01;102151.81;4825153;29;120434;-76
2023/08/20 07:54:36;;;;;;;;;;;;;;;26.66;55.88;102153.44;4825525;29;118845;-76
2023/08/20 07:57:03;;;;;;;;;;;;;;;26.79;55.87;102154.03;4829304;29;123932;-77
2023/08/20 07:59:30;;;;;;;;;;;;;;;26.90;55.60;102167.47;4829258;29;123942;-76
2023/08/20 08:01:57;;;;;;;;;;;;;;;26.97;55.49;102160.44;4829432;29;120226;-76
2023/08/20 08:04:24;;;;;;;;;;;;;;;27.07;55.67;102167.72;4846850;29;118893;-76
2023/08/20 08:06:50;;;;;;;;;;;;;;;27.18;55.56;102164.81;4822268;29;124400;-76
2023/08/20 08:09:28;;;;;;;;;;;;;;;27.28;55.50;102164.88;4824783;29;125543;-76
2023/08/20 08:11:55;;;;;;;;;;;;;;;27.35;55.63;102166.84;4828142;29;119480;-76
2023/08/20 08:14:22;;;;;;;;;;;;;;;27.46;55.55;102173.09;4831514;29;118456;-76
2023/08/20 08:16:50;;;;;;;;;;;;;;;27.53;55.51;102175.09;4824218;29;124779;-76
2023/08/20 08:19:17;;;;;;;;;;;;;;;27.62;55.20;102172.50;4849329;29;125231;-76
2023/08/20 08:21:44;;;;;;;;;;;;;;;27.70;55.18;102176.19;4825550;29;121103;-76
2023/08/20 08:24:12;;;;;;;;;;;;;;;27.77;55.18;102171.84;4831041;29;118621;-77
2023/08/20 08:26:39;;;;;;;;;;;;;;;27.86;55.37;102169.22;4826411;29;124271;-76
2023/08/20 08:29:07;;;;;;;;;;;;;;;27.96;54.97;102180.97;4834936;29;124878;-77
2023/08/20 08:31:34;;;;;;;;;;;;;;;28.06;55.06;102187.22;4830062;29;119641;-76
2023/08/20 08:34:01;;;;;;;;;;;;;;;28.14;54.84;102179.16;4832312;29;117940;-76
2023/08/20 08:36:29;;;;;;;;;;;;;;;28.19;54.95;102177.84;4827121;29;124924;-77
2023/08/20 08:38:56;;;;;;;;;;;;;;;28.23;54.93;102181.97;4828525;29;123768;-77
2023/08/20 08:41:25;;;;;;;;;;;;;;;28.26;54.69;102187.13;4834684;29;119398;-77
2023/08/20 08:43:55;;;;;;;;;;;;;;;28.30;54.68;102193.97;4833602;29;118801;-76
2023/08/20 08:46:22;;;;;;;;;;;;;;;28.36;54.80;102193.34;4829724;29;125127;-77
2023/08/20 08:48:49;;;;;;;;;;;;;;;28.45;54.59;102191.59;4834316;29;123863;-76
2023/08/20 08:51:16;;;;;;;;;;;;;;;28.50;54.68;102192.84;4824087;29;119597;-76
2023/08/20 08:53:46;;;;;;;;;;;;;;;28.59;54.54;102192.94;4833507;29;118887;-76
2023/08/20 08:56:13;;;;;;;;;;;;;;;28.67;54.66;102193.00;4844696;29;124477;-76
2023/08/20 08:58:40;;;;;;;;;;;;;;;28.74;54.50;102180.47;4826465;29;124111;-76
2023/08/20 09:01:07;;;;;;;;;;;;;;;28.83;54.44;102185.00;4827378;29;119951;-76
2023/08/20 09:03:34;;;;;;;;;;;;;;;28.89;54.40;102184.34;4832732;29;117815;-77
2023/08/20 09:06:03;;;;;;;;;;;;;;;28.96;54.14;102189.22;4840667;29;124147;-76
2023/08/20 09:08:30;;;;;;;;;;;;;;;28.99;54.21;102189.75;4832147;29;124504;-76
2023/08/20 09:10:58;;;;;;;;;;;;;;;29.04;54.19;102181.94;4831896;29;121350;-76
2023/08/20 09:13:32;;;;;;;;;;;;;;;29.15;54.15;102189.03;4832943;29;119772;-77
2023/08/20 09:15:59;;;;;;;;;;;;;;;29.18;54.05;102194.19;4845244;29;124334;-77
2023/08/20 09:18:26;;;;;;;;;;;;;;;29.23;53.92;102191.81;4831103;29;124121;-76
2023/08/20 09:20:53;;;;;;;;;;;;;;;29.25;53.77;102189.81;4829923;29;118970;-76
2023/08/20 09:23:20;;;;;;;;;;;;;;;29.28;53.87;102178.56;4835200;29;118494;-76
2023/08/20 09:25:47;;;;;;;;;;;;;;;29.33;53.94;102191.75;4828154;29;123732;-76
2023/08/20 09:28:14;;;;;;;;;;;;;;;29.37;53.93;102186.81;4849805;29;125778;-76
2023/08/20 09:30:53;;;;;;;;;;;;;;;29.42;53.77;102182.59;4830714;29;119703;-76
2023/08/20 09:33:21;;;;;;;;;;;;;;;29.46;53.67;102185.84;4824726;29;118983;-76
2023/08/20 09:35:53;;;;;;;;;;;;;;;29.48;53.50;102175.63;4832279;29;125024;-76
2023/08/20 09:38:21;;;;;;;;;;;;;;;29.48;53.41;102189.28;4825467;29;124018;-77
2023/08/20 09:40:52;;;;;;;;;;;;;;;29.50;53.44;102188.09;4830480;29;120027;-77
2023/08/20 09:43:20;;;;;;;;;;;;;;;29.53;53.48;102186.91;4826194;29;118715;-76
2023/08/20 09:45:47;;;;;;;;;;;;;;;29.52;53.28;102185.22;4828153;29;123748;-76
2023/08/20 09:48:19;;;;;;;;;;;;;;;29.56;53.31;102181.13;4834110;29;123590;-76
2023/08/20 09:50:46;;;;;;;;;;;;;;;29.64;53.36;102189.38;4832110;29;119515;-76
2023/08/20 09:53:16;;;;;;;;;;;;;;;29.74;53.42;102189.28;4834447;29;118609;-76
2023/08/20 09:55:44;;;;;;;;;;;;;;;29.80;53.26;102188.63;4833464;29;125577;-76
2023/08/20 09:58:12;;;;;;;;;;;;;;;29.88;53.18;102196.00;4818467;29;124753;-76
2023/08/20 10:00:39;;;;;;;;;;;;;;;29.96;53.17;102193.31;4833137;29;120839;-76
2023/08/20 10:03:06;;;;;;;;;;;;;;;30.05;53.21;102192.31;4830833;29;119712;-76
2023/08/20 10:05:33;;;;;;;;;;;;;;;30.15;53.02;102196.81;4828292;29;124202;-76
2023/08/20 10:08:00;;;;;;;;;;;;;;;30.23;52.90;102194.97;4827455;29;124118;-76
2023/08/20 10:10:27;;;;;;;;;;;;;;;30.26;52.71;102189.13;4832490;29;118011;-76
2023/08/20 10:12:56;;;;;;;;;;;;;;;30.29;52.77;102193.44;4847045;29;118694;-76
2023/08/20 10:15:23;;;;;;;;;;;;;;;30.31;52.60;102196.84;4841352;29;122685;-76
2023/08/20 10:17:50;;;;;;;;;;;;;;;30.34;52.75;102193.81;4847894;29;123942;-76
2023/08/20 10:20:17;;;;;;;;;;;;;;;30.37;52.56;102195.38;4825623;29;119109;-76
2023/08/20 10:22:45;;;;;;;;;;;;;;;30.37;52.36;102196.22;4845118;29;119304;-76
2023/08/20 10:25:21;;;;;;;;;;;;;;;30.41;52.58;102192.13;4830466;29;124603;-76
2023/08/20 10:27:48;;;;;;;;;;;;;;;30.47;52.43;102191.44;4822522;29;123911;-76
2023/08/20 10:30:21;;;;;;;;;;;;;;;30.53;52.30;102195.38;4820550;29;118505;-76
2023/08/20 10:32:52;;;;;;;;;;;;;;;30.59;52.46;102188.38;4817358;29;119349;-75
2023/08/20 10:35:23;;;;;;;;;;;;;;;30.65;52.03;102201.41;4813940;29;124821;-76
2023/08/20 10:38:03;;;;;;;;;;;;;;;30.66;52.05;102194.91;4819206;29;124050;-76
2023/08/20 10:40:49;;;;;;;;;;;;;;;30.66;51.85;102195.75;4820496;29;121862;-76
2023/08/20 10:43:25;;;;;;;;;;;;;;;30.69;51.84;102193.72;4819620;29;119164;-76
2023/08/20 10:46:25;;;;;;;;;;;;;;;30.74;51.86;102192.19;4822478;29;122945;-76
2023/08/20 10:49:02;;;;;;;;;;;;;;;30.81;51.70;102190.47;4804176;28;123442;-75
2023/08/20 10:51:33;;;;;;;;;;;;;;;30.86;51.86;102190.81;4820178;29;120614;-76
2023/08/20 10:54:00;;;;;;;;;;;;;;;30.94;51.89;102187.25;4818842;29;119908;-76
2023/08/20 10:56:43;;;;;;;;;;;;;;;30.99;51.74;102184.03;4819660;29;124335;-76
2023/08/20 10:59:17;;;;;;;;;;;;;;;31.06;51.54;102190.47;4839741;29;124004;-75
2023/08/20 11:01:45;;;;;;;;;;;;;;;31.14;51.66;102198.72;4832657;29;119388;-75
2023/08/20 11:04:13;;;;;;;;;;;;;;;31.18;51.71;102199.22;4837738;29;117940;-76
2023/08/20 11:06:40;;;;;;;;;;;;;;;31.18;51.47;102194.59;4825406;29;124068;-76
2023/08/20 11:09:07;;;;;;;;;;;;;;;31.19;51.07;102196.31;4829639;29;124156;-76
2023/08/20 11:11:34;;;;;;;;;;;;;;;31.20;51.13;102198.00;4826046;29;120078;-76
2023/08/20 11:14:05;;;;;;;;;;;;;;;31.21;50.95;102194.25;4831829;29;117832;-75
2023/08/20 11:16:32;;;;;;;;;;;;;;;31.21;50.93;102199.75;4829247;29;123343;-76
2023/08/20 11:18:59;;;;;;;;;;;;;;;31.23;50.86;102197.69;4832490;29;124041;-75
2023/08/20 11:21:28;;;;;;;;;;;;;;;31.26;50.83;102201.09;4829832;29;118816;-76
2023/08/20 11:23:55;;;;;;;;;;;;;;;31.29;50.88;102195.25;4828805;29;119353;-76
2023/08/20 11:26:22;;;;;;;;;;;;;;;31.32;50.67;102200.41;4827903;29;123219;-76
2023/08/20 11:28:49;;;;;;;;;;;;;;;31.35;50.71;102195.44;4824003;29;123813;-75
2023/08/20 11:31:17;;;;;;;;;;;;;;;31.41;50.67;102193.88;4826233;29;119611;-75
2023/08/20 11:33:44;;;;;;;;;;;;;;;31.46;50.49;102186.00;4826257;29;119632;-76
2023/08/20 11:36:11;;;;;;;;;;;;;;;31.47;50.40;102190.47;4825942;29;125132;-76
2023/08/20 11:38:38;;;;;;;;;;;;;;;31.50;50.67;102181.91;4822419;29;124061;-76
2023/08/20 11:41:05;;;;;;;;;;;;;;;31.52;50.44;102179.84;4829176;29;120659;-75
2023/08/20 11:43:32;;;;;;;;;;;;;;;31.55;50.28;102190.47;4824914;29;120187;-77
2023/08/20 11:45:59;;;;;;;;;;;;;;;31.61;50.48;102189.75;4825928;29;123560;-76
2023/08/20 11:48:27;;;;;;;;;;;;;;;31.63;50.08;102182.22;4825119;29;123474;-76
2023/08/20 11:50:56;;;;;;;;;;;;;;;31.64;50.24;102183.06;4831547;29;119614;-76
2023/08/20 11:53:26;;;;;;;;;;;;;;;31.65;50.24;102183.91;4828306;29;119017;-76
2023/08/20 11:55:53;;;;;;;;;;;;;;;31.66;49.82;102185.63;4833744;29;124117;-76
2023/08/20 11:58:21;;;;;;;;;;;;;;;31.72;50.23;102184.91;4833183;29;124292;-76
2023/08/20 12:00:50;;;;;;;;;;;;;;;31.77;49.77;102180.63;4835180;29;119282;-76
2023/08/20 12:03:18;;;;;;;;;;;;;;;31.79;49.66;102177.69;4833458;29;118849;-76
2023/08/20 12:05:45;;;;;;;;;;;;;;;31.78;49.96;102173.28;4834566;29;123940;-76
2023/08/20 12:08:15;;;;;;;;;;;;;;;31.77;49.89;102160.59;4834977;29;125250;-76
2023/08/20 12:10:42;;;;;;;;;;;;;;;31.75;49.71;102162.66;4831646;29;118644;-76
2023/08/20 12:13:09;;;;;;;;;;;;;;;31.73;49.70;102164.72;4833485;29;118906;-76
2023/08/20 12:15:36;;;;;;;;;;;;;;;31.73;49.25;102153.75;4829475;29;125034;-76
2023/08/20 12:18:04;;;;;;;;;;;;;;;31.74;49.74;102148.13;4843742;29;123205;-76
2023/08/20 12:20:33;;;;;;;;;;;;;;;31.79;49.50;102142.09;4833412;29;119640;-75
2023/08/20 12:23:04;;;;;;;;;;;;;;;31.85;49.36;102140.53;4833377;29;118243;-76
2023/08/20 12:25:33;;;;;;;;;;;;;;;31.88;49.22;102135.53;4814661;29;124332;-76
2023/08/20 12:28:01;;;;;;;;;;;;;;;31.92;49.21;102125.91;4832006;29;124200;-76
2023/08/20 12:30:28;;;;;;;;;;;;;;;31.99;49.31;102124.19;4832006;29;121026;-76
2023/08/20 12:32:54;;;;;;;;;;;;;;;32.05;49.11;102124.53;4832020;29;119890;-76